Time;durP1;ratioP1;P1;durP2;ratioP2;P2;SDS_P1;SDS_P2;PMS_P1;PMS_P2;Temp;Humidity;BMP_temperature;BMP_pressure;BME280_temperature;BME280_humidity;BME280_pressure;Samples;Min_cycle;Max_cycle;Signal;HPM_P1;HPM_P2
2022/01/08 00:00:17;;;;;;;2.75;1.80;;;0.40;99.90;;;;;;5104867;27;20043;-81
2022/01/08 00:03:04;;;;;;;3.22;1.80;;;0.40;99.90;;;;;;5136336;27;20102;-82
2022/01/08 00:05:56;;;;;;;2.08;1.85;;;0.50;99.90;;;;;;5141487;27;20047;-82
2022/01/08 00:08:48;;;;;;;5.07;1.85;;;0.60;99.90;;;;;;5109397;27;20031;-81
2022/01/08 00:11:36;;;;;;;4.38;2.13;;;0.70;99.90;;;;;;5099363;28;20051;-81
2022/01/08 00:14:24;;;;;;;1.88;1.58;;;0.90;99.90;;;;;;5097256;27;20081;-81
2022/01/08 00:17:12;;;;;;;2.03;1.58;;;0.90;99.90;;;;;;5119645;27;20136;-81
2022/01/08 00:20:08;;;;;;;4.65;1.80;;;0.90;99.90;;;;;;5133485;27;20047;-82
2022/01/08 00:22:56;;;;;;;5.60;1.80;;;0.90;99.90;;;;;;5123852;27;20421;-81
2022/01/08 00:25:44;;;;;;;1.95;1.48;;;0.90;99.90;;;;;;5113133;27;20058;-81
2022/01/08 00:28:31;;;;;;;4.43;1.85;;;0.90;99.90;;;;;;5106962;27;20428;-81
2022/01/08 00:31:18;;;;;;;2.30;1.77;;;0.90;99.90;;;;;;5126490;27;20039;-80
2022/01/08 00:34:05;;;;;;;2.80;1.60;;;0.90;99.90;;;;;;5082495;27;20043;-82
2022/01/08 00:36:53;;;;;;;4.30;1.90;;;0.90;99.90;;;;;;5132161;27;20044;-82
2022/01/08 00:39:44;;;;;;;3.40;1.67;;;0.90;99.90;;;;;;5099180;27;20472;-79
2022/01/08 00:42:32;;;;;;;3.30;1.75;;;0.90;99.90;;;;;;5115538;27;20074;-82
2022/01/08 00:45:19;;;;;;;2.33;1.30;;;0.90;99.90;;;;;;5130589;27;20055;-83
2022/01/08 00:48:06;;;;;;;2.97;1.55;;;0.90;99.90;;;;;;5115977;27;20116;-81
2022/01/08 00:50:56;;;;;;;5.05;2.42;;;0.90;99.90;;;;;;5131068;27;20035;-82
2022/01/08 00:53:46;;;;;;;2.28;1.40;;;0.90;99.90;;;;;;5109615;28;20381;-82
2022/01/08 00:56:35;;;;;;;5.70;1.80;;;0.90;99.90;;;;;;5124724;27;20448;-82
2022/01/08 00:59:25;;;;;;;3.65;1.85;;;0.90;99.90;;;;;;5111469;27;20042;-80
2022/01/08 01:02:19;;;;;;;3.37;1.70;;;1.00;99.90;;;;;;5102822;27;20047;-81
2022/01/08 01:05:10;;;;;;;5.68;1.88;;;1.00;99.90;;;;;;5115339;27;20141;-83
2022/01/08 01:07:57;;;;;;;2.45;1.55;;;1.00;99.90;;;;;;5132304;27;20075;-84
2022/01/08 01:10:44;;;;;;;2.58;1.55;;;1.00;99.90;;;;;;5113133;27;20091;-81
2022/01/08 01:13:32;;;;;;;2.85;1.77;;;1.00;99.90;;;;;;5116773;27;20047;-81
2022/01/08 01:16:21;;;;;;;3.08;1.80;;;1.00;99.90;;;;;;5132752;27;20119;-83
2022/01/08 01:19:08;;;;;;;6.35;2.08;;;1.00;99.90;;;;;;5103762;28;20067;-82
2022/01/08 01:21:59;;;;;;;3.40;1.90;;;1.00;99.90;;;;;;5109239;27;20047;-83
2022/01/08 01:24:50;;;;;;;3.13;2.03;;;1.00;99.90;;;;;;5101403;28;20100;-82
2022/01/08 01:49:11;;;;;;;2.55;2.10;;;1.50;99.90;;;;;;5132808;27;20051;-80
2022/01/08 01:52:00;;;;;;;3.80;2.10;;;1.50;99.90;;;;;;5117227;27;20440;-81
2022/01/08 01:54:49;;;;;;;4.25;2.25;;;1.60;99.90;;;;;;5115654;27;20042;-80
2022/01/08 01:57:37;;;;;;;4.10;2.42;;;1.50;99.90;;;;;;5132785;27;20035;-82
2022/01/08 02:00:27;;;;;;;5.32;2.53;;;1.40;99.90;;;;;;5106119;27;20156;-82
2022/01/08 02:03:17;;;;;;;3.85;2.25;;;1.30;99.90;;;;;;5109263;27;20043;-84
2022/01/08 02:06:04;;;;;;;6.95;2.70;;;1.30;99.90;;;;;;5131309;27;20471;-82
2022/01/08 02:08:51;;;;;;;4.93;2.70;;;1.30;99.90;;;;;;5095070;27;20174;-81
2022/01/08 02:11:58;;;;;;;3.85;2.30;;;1.30;99.90;;;;;;5109453;27;20114;-81
2022/01/08 02:14:51;;;;;;;4.95;2.72;;;1.30;99.90;;;;;;5101458;27;20126;-82
2022/01/08 02:17:38;;;;;;;5.88;2.70;;;1.40;99.90;;;;;;5113857;27;20461;-81
2022/01/08 02:20:26;;;;;;;3.47;2.10;;;1.40;99.90;;;;;;5134079;27;20043;-81
2022/01/08 02:23:15;;;;;;;4.68;2.55;;;1.50;99.90;;;;;;5114269;27;20059;-82
2022/01/08 02:26:05;;;;;;;3.78;2.00;;;1.50;99.90;;;;;;5132574;27;20049;-83
2022/01/08 02:28:52;;;;;;;3.00;2.30;;;1.70;99.90;;;;;;5133209;27;20084;-80
2022/01/08 02:31:52;;;;;;;8.20;2.50;;;1.80;99.90;;;;;;5099209;27;20039;-81
2022/01/08 02:34:41;;;;;;;3.90;2.33;;;1.90;99.90;;;;;;5110836;27;20100;-82
2022/01/08 02:37:33;;;;;;;5.28;2.50;;;1.90;99.90;;;;;;5108794;27;20038;-82
2022/01/08 02:40:22;;;;;;;5.63;3.10;;;1.90;99.90;;;;;;5115451;27;20092;-83
2022/01/08 02:43:11;;;;;;;6.90;2.88;;;1.70;99.90;;;;;;5137188;27;20051;-84
2022/01/08 02:46:01;;;;;;;5.50;3.00;;;1.60;99.90;;;;;;5114541;27;20454;-82
2022/01/08 02:48:52;;;;;;;4.95;3.35;;;1.40;99.90;;;;;;5112805;28;20047;-85
2022/01/08 02:51:45;;;;;;;10.27;3.92;;;1.40;99.90;;;;;;5134821;27;20031;-83
2022/01/08 02:54:33;;;;;;;4.30;3.28;;;1.30;99.90;;;;;;5109337;28;20058;-81
2022/01/08 02:57:23;;;;;;;6.15;3.30;;;1.30;99.90;;;;;;5112362;28;20063;-82
2022/01/08 03:00:15;;;;;;;6.35;3.28;;;1.30;99.90;;;;;;5104655;28;20095;-80
2022/01/08 03:03:03;;;;;;;5.20;3.90;;;1.20;99.90;;;;;;5115187;28;20111;-81
2022/01/08 03:05:50;;;;;;;6.18;4.30;;;1.20;99.90;;;;;;5115988;27;20058;-84
2022/01/08 03:08:39;;;;;;;5.78;4.07;;;1.20;99.90;;;;;;5115375;28;20172;-82
2022/01/08 03:11:32;;;;;;;10.45;4.32;;;1.20;99.90;;;;;;5128588;28;20035;-80
2022/01/08 03:14:24;;;;;;;6.78;4.90;;;1.10;99.90;;;;;;5127886;27;20095;-82
2022/01/08 03:17:11;;;;;;;8.05;5.13;;;1.10;99.90;;;;;;5119361;27;20111;-81
2022/01/08 03:20:04;;;;;;;6.63;4.40;;;1.10;99.90;;;;;;5124652;27;20242;-82
2022/01/08 03:22:51;;;;;;;8.57;4.88;;;1.10;99.90;;;;;;5114967;28;20232;-82
2022/01/08 03:25:42;;;;;;;6.80;4.63;;;1.00;99.90;;;;;;5101048;28;20050;-82
2022/01/08 03:28:30;;;;;;;10.18;6.35;;;1.00;99.90;;;;;;5137214;27;20050;-82
2022/01/08 03:31:18;;;;;;;8.70;5.97;;;1.00;99.90;;;;;;5113217;27;20047;-83
2022/01/08 03:34:06;;;;;;;10.55;6.03;;;1.00;99.90;;;;;;5132124;28;20066;-82
2022/01/08 03:36:54;;;;;;;10.60;7.88;;;0.90;99.90;;;;;;5138290;27;20039;-81
2022/01/08 03:39:42;;;;;;;10.77;7.07;;;0.90;99.90;;;;;;5127073;27;20044;-81
2022/01/08 03:42:34;;;;;;;14.95;8.13;;;0.80;99.90;;;;;;5115176;28;20054;-83
2022/01/08 03:45:22;;;;;;;14.00;8.10;;;0.80;99.90;;;;;;5104281;28;20060;-80
2022/01/08 03:50:58;;;;;;;12.55;8.30;;;0.90;99.90;;;;;;5114869;27;20131;-82
2022/01/08 03:53:45;;;;;;;10.20;7.38;;;1.00;99.90;;;;;;5107851;27;20035;-81
2022/01/08 03:56:33;;;;;;;12.75;7.30;;;1.00;99.90;;;;;;5116399;27;20043;-80
2022/01/08 03:59:21;;;;;;;11.50;8.07;;;1.00;99.90;;;;;;5102477;27;20146;-81
2022/01/08 04:02:08;;;;;;;12.45;8.55;;;1.00;99.90;;;;;;5132984;27;20081;-80
2022/01/08 04:04:57;;;;;;;14.63;9.20;;;1.00;99.90;;;;;;5109490;27;20123;-82
2022/01/08 04:07:44;;;;;;;12.23;7.75;;;1.00;99.90;;;;;;5105698;28;20142;-79
2022/01/08 04:10:32;;;;;;;14.43;7.75;;;1.10;99.90;;;;;;5124386;27;20046;-81
2022/01/08 04:13:29;;;;;;;13.48;8.70;;;1.00;99.90;;;;;;5094086;27;20050;-81
2022/01/08 04:16:21;;;;;;;12.52;7.50;;;1.00;99.90;;;;;;5097086;27;20456;-80
2022/01/08 04:19:08;;;;;;;11.63;7.20;;;1.10;99.90;;;;;;5097925;27;20039;-79
2022/01/08 04:21:59;;;;;;;8.57;6.45;;;1.10;99.90;;;;;;5126657;27;20062;-81
2022/01/08 04:24:46;;;;;;;11.05;6.90;;;1.10;99.90;;;;;;5119614;27;20040;-79
2022/01/08 04:27:33;;;;;;;10.68;6.75;;;1.10;99.90;;;;;;5105518;27;20425;-81
2022/01/08 04:30:21;;;;;;;10.10;6.25;;;1.10;99.90;;;;;;5088925;27;20043;-81
2022/01/08 04:33:08;;;;;;;9.63;6.80;;;1.10;99.90;;;;;;5122526;27;20126;-79
2022/01/08 04:35:56;;;;;;;11.27;5.97;;;1.00;99.90;;;;;;5127870;27;20127;-81
2022/01/08 04:38:45;;;;;;;11.07;6.45;;;0.90;99.90;;;;;;5089197;27;20511;-81
2022/01/08 04:41:33;;;;;;;8.88;6.30;;;0.80;99.90;;;;;;5105908;27;20062;-81
2022/01/08 04:44:20;;;;;;;11.50;6.30;;;0.80;99.90;;;;;;5115454;27;20100;-81
2022/01/08 04:47:07;;;;;;;10.50;6.50;;;0.70;99.90;;;;;;5147059;27;20054;-80
2022/01/08 04:49:55;;;;;;;11.52;6.93;;;0.70;99.90;;;;;;5115965;27;20139;-81
2022/01/08 04:52:42;;;;;;;12.90;6.88;;;0.70;99.90;;;;;;5117167;27;20383;-80
2022/01/08 04:55:30;;;;;;;10.55;6.60;;;0.70;99.90;;;;;;5132078;27;20115;-79
2022/01/08 04:58:17;;;;;;;7.93;5.93;;;0.60;99.90;;;;;;5101163;27;20441;-81
2022/01/08 05:01:10;;;;;;;15.63;5.43;;;0.60;99.90;;;;;;5112806;27;20046;-81
2022/01/08 05:03:57;;;;;;;;;;;0.60;99.90;;;;;;5102844;27;20477;-83
2022/01/08 05:06:45;;;;;;;11.77;5.03;;;0.60;99.90;;;;;;5113118;27;19926;-82
2022/01/08 05:09:37;;;;;;;7.10;4.20;;;0.60;99.90;;;;;;5094636;28;20102;-82
2022/01/08 05:12:28;;;;;;;7.88;4.10;;;0.60;99.90;;;;;;5111411;27;20118;-82
2022/01/08 05:15:16;;;;;;;6.30;4.05;;;0.70;99.90;;;;;;5117927;27;20035;-83
2022/01/08 05:18:06;;;;;;;4.93;4.05;;;0.70;99.90;;;;;;5097155;28;20055;-82
2022/01/08 05:21:08;;;;;;;5.82;4.25;;;0.70;99.90;;;;;;5093580;27;20063;-82
2022/01/08 05:23:57;;;;;;;5.85;4.55;;;0.70;99.90;;;;;;5098776;27;20151;-83
2022/01/08 05:26:44;;;;;;;5.78;3.72;;;0.70;99.90;;;;;;5135817;27;20106;-81
2022/01/08 05:29:35;;;;;;;8.88;4.53;;;0.70;99.90;;;;;;5092869;27;20534;-82
2022/01/08 05:32:23;;;;;;;5.07;3.65;;;0.70;99.90;;;;;;5100442;27;20139;-80
2022/01/08 05:35:11;;;;;;;6.20;4.07;;;0.80;99.90;;;;;;5124449;27;20050;-81
2022/01/08 05:38:02;;;;;;;5.97;3.60;;;0.80;99.90;;;;;;5132380;27;20487;-81
2022/01/08 05:40:52;;;;;;;4.93;3.10;;;0.70;99.90;;;;;;5132344;27;20039;-81
2022/01/08 05:43:41;;;;;;;4.03;3.00;;;0.70;99.90;;;;;;5111282;28;20040;-80
2022/01/08 05:46:30;;;;;;;3.10;2.40;;;0.80;99.90;;;;;;5105477;27;20097;-82
2022/01/08 05:49:19;;;;;;;5.03;2.50;;;0.80;99.90;;;;;;5108451;27;20079;-81
2022/01/08 05:52:10;;;;;;;3.45;2.03;;;0.80;99.90;;;;;;5115237;27;20074;-79
2022/01/08 05:54:59;;;;;;;2.80;2.30;;;0.80;99.90;;;;;;5131273;27;20038;-79
2022/01/08 05:57:49;;;;;;;2.05;1.85;;;0.80;99.90;;;;;;5108105;27;20051;-81
2022/01/08 06:00:36;;;;;;;2.00;1.80;;;0.80;99.90;;;;;;5102926;27;20036;-79
2022/01/08 06:03:24;;;;;;;2.15;1.50;;;0.80;99.90;;;;;;5084836;27;20490;-80
2022/01/08 06:06:11;;;;;;;2.53;1.60;;;0.80;99.90;;;;;;5118427;27;20397;-80
2022/01/08 06:08:59;;;;;;;4.90;1.50;;;0.80;99.90;;;;;;5102383;27;20046;-80
2022/01/08 06:11:49;;;;;;;1.30;1.20;;;0.80;99.90;;;;;;5112411;27;20046;-81
2022/01/08 06:14:38;;;;;;;1.40;1.30;;;0.70;99.90;;;;;;5102902;27;20064;-81
2022/01/08 06:17:26;;;;;;;3.08;1.70;;;0.70;99.90;;;;;;5131008;27;20127;-81
2022/01/08 06:20:13;;;;;;;1.80;1.70;;;0.70;99.90;;;;;;5111810;27;20048;-80
2022/01/08 06:23:00;;;;;;;2.40;2.13;;;0.70;99.90;;;;;;5113737;27;20088;-80
2022/01/08 06:25:48;;;;;;;3.53;2.20;;;0.60;99.90;;;;;;5102676;27;20039;-79
2022/01/08 06:28:35;;;;;;;3.00;2.70;;;0.60;99.90;;;;;;5104905;27;20448;-81
2022/01/08 06:31:23;;;;;;;6.07;3.08;;;0.60;99.90;;;;;;5109384;27;20105;-80
2022/01/08 06:34:12;;;;;;;3.55;2.70;;;0.50;99.90;;;;;;5116948;27;20463;-81
2022/01/08 06:36:59;;;;;;;3.00;2.53;;;0.50;99.90;;;;;;5102678;27;20348;-80
2022/01/08 06:39:52;;;;;;;4.63;2.35;;;0.50;99.90;;;;;;5117719;27;20417;-79
2022/01/08 06:42:39;;;;;;;2.88;2.40;;;0.50;99.90;;;;;;5127823;27;20103;-80
2022/01/08 06:45:27;;;;;;;3.10;2.38;;;0.50;99.90;;;;;;5082020;28;20112;-81
2022/01/08 06:48:14;;;;;;;2.20;2.00;;;0.50;99.90;;;;;;5114699;28;20430;-81
2022/01/08 06:51:18;;;;;;;3.85;2.20;;;0.50;99.90;;;;;;5140540;27;20046;-81
2022/01/08 06:58:05;;;;;;;4.75;2.00;;;0.50;99.90;;;;;;5054435;28;20135;-81
2022/01/08 07:00:52;;;;;;;5.03;2.00;;;0.50;99.90;;;;;;5046516;28;20045;-80
2022/01/08 07:03:40;;;;;;;2.58;2.13;;;0.50;99.90;;;;;;5043240;28;20477;-82
2022/01/08 07:06:34;;;;;;;4.40;2.38;;;0.50;99.90;;;;;;5060854;28;20044;-80
2022/01/08 07:09:24;;;;;;;3.42;2.28;;;0.60;99.90;;;;;;5061028;28;20129;-81
2022/01/08 07:12:13;;;;;;;3.60;2.40;;;0.50;99.90;;;;;;5046909;28;20071;-78
2022/01/08 07:19:19;;;;;;;6.15;2.78;;;0.60;99.90;;;;;;5026720;28;20091;-81
2022/01/08 07:22:43;;;;;;;5.07;3.00;;;0.50;99.90;;;;;;5033420;28;20072;-81
2022/01/08 07:25:41;;;;;;;7.50;3.45;;;0.50;99.90;;;;;;5097666;27;20054;-80
2022/01/08 07:29:16;;;;;;;6.60;3.30;;;0.50;99.90;;;;;;5119028;27;20038;-80
2022/01/08 07:33:18;;;;;;;4.25;3.15;;;0.50;99.90;;;;;;5048226;28;20377;-80
2022/01/08 07:37:02;;;;;;;12.13;3.40;;;0.50;99.90;;;;;;5010516;28;20045;-80
2022/01/08 07:40:26;;;;;;;5.55;2.85;;;0.50;99.90;;;;;;5060680;28;20053;-81
2022/01/08 07:44:44;;;;;;;5.00;3.33;;;0.50;99.90;;;;;;5045407;28;20052;-80
2022/01/08 07:47:57;;;;;;;6.13;3.70;;;0.50;99.90;;;;;;5045040;28;20045;-80
2022/01/08 07:50:44;;;;;;;6.20;4.13;;;0.40;99.90;;;;;;5054341;28;20044;-80
2022/01/08 07:53:35;;;;;;;10.63;4.28;;;0.30;99.90;;;;;;5052678;28;20384;-81
2022/01/08 07:56:29;;;;;;;6.88;4.13;;;0.30;99.90;;;;;;5057222;28;20119;-80
2022/01/08 07:59:41;;;;;;;;;;;0.30;99.90;;;;;;5070586;28;20040;-79
2022/01/08 08:02:30;;;;;;;4.10;3.40;;;0.20;99.90;;;;;;5088364;27;19940;-79
2022/01/08 08:05:58;;;;;;;3.60;3.05;;;0.20;99.90;;;;;;5124377;27;20043;-80
2022/01/08 08:08:57;;;;;;;4.28;3.22;;;0.30;99.90;;;;;;5132552;27;20658;-82
2022/01/08 08:11:58;;;;;;;6.05;3.83;;;0.30;99.90;;;;;;5129119;27;20514;-78
2022/01/08 08:18:17;;;;;;;9.20;5.10;;;0.30;99.90;;;;;;5121206;27;20050;-79
2022/01/08 08:21:33;;;;;;;11.32;5.65;;;0.30;99.90;;;;;;5101967;27;20043;-80
2022/01/08 08:24:27;;;;;;;12.90;6.35;;;0.30;99.90;;;;;;5105554;27;20118;-79
2022/01/08 08:27:43;;;;;;;8.13;4.20;;;0.30;99.90;;;;;;5110564;27;20487;-81
2022/01/08 08:30:33;;;;;;;4.95;3.50;;;0.20;99.90;;;;;;5113219;27;20126;-80
2022/01/08 08:33:20;;;;;;;5.90;4.40;;;0.30;99.90;;;;;;5106950;27;20118;-80
2022/01/08 08:36:10;;;;;;;9.82;4.47;;;0.30;99.90;;;;;;5099495;27;20047;-81
2022/01/08 08:38:57;;;;;;;3.45;3.15;;;0.40;99.90;;;;;;5111017;27;20039;-80
2022/01/08 08:41:47;;;;;;;5.72;4.10;;;0.40;99.90;;;;;;5108575;28;20071;-80
2022/01/08 08:44:37;;;;;;;6.03;3.90;;;0.40;99.90;;;;;;5111934;27;20084;-79
2022/01/08 08:47:57;;;;;;;5.22;3.92;;;0.50;99.90;;;;;;5086607;28;20068;-80
2022/01/08 08:50:50;;;;;;;;;;;0.40;99.90;;;;;;5086433;28;20043;-81
2022/01/08 08:53:37;;;;;;;6.82;5.00;;;0.40;99.90;;;;;;5082176;27;19923;-79
2022/01/08 08:56:25;;;;;;;10.40;4.60;;;0.40;99.90;;;;;;5098614;28;20081;-80
2022/01/08 08:59:12;;;;;;;6.68;3.75;;;0.50;99.90;;;;;;5072693;28;20120;-79
2022/01/08 09:02:00;;;;;;;9.70;4.03;;;0.60;99.90;;;;;;5110078;27;20066;-78
2022/01/08 09:04:47;;;;;;;5.45;3.78;;;0.70;99.90;;;;;;5084343;28;20464;-80
2022/01/08 09:07:35;;;;;;;8.77;3.63;;;0.80;99.90;;;;;;5091195;28;20055;-81
2022/01/08 09:10:25;;;;;;;7.25;4.00;;;0.90;99.90;;;;;;5089393;28;20063;-79
2022/01/08 09:13:14;;;;;;;6.93;3.63;;;1.00;99.90;;;;;;5100489;28;20044;-82
2022/01/08 09:16:02;;;;;;;8.52;3.60;;;1.00;99.90;;;;;;5073741;27;20060;-80
2022/01/08 09:18:54;;;;;;;8.30;3.55;;;1.00;99.90;;;;;;5116798;27;20035;-79
2022/01/08 09:21:44;;;;;;;5.05;3.78;;;1.00;99.90;;;;;;5095264;28;20047;-78
2022/01/08 09:24:36;;;;;;;5.78;3.17;;;1.10;99.90;;;;;;5115453;27;20050;-80
2022/01/08 09:27:24;;;;;;;7.25;3.53;;;1.10;99.90;;;;;;5094122;28;20228;-79
2022/01/08 09:30:11;;;;;;;6.70;3.88;;;1.20;99.90;;;;;;5091536;28;20132;-79
2022/01/08 09:32:58;;;;;;;15.23;3.25;;;1.60;99.90;;;;;;5072795;28;20101;-79
2022/01/08 09:35:46;;;;;;;5.13;2.70;;;2.00;99.90;;;;;;5090988;28;20130;-80
2022/01/08 09:38:34;;;;;;;3.13;2.28;;;2.40;99.90;;;;;;5095852;28;20132;-79
2022/01/08 09:41:24;;;;;;;9.95;3.22;;;2.50;99.90;;;;;;5103024;28;20104;-78
2022/01/08 09:44:12;;;;;;;7.55;3.00;;;2.40;99.90;;;;;;5108605;27;20067;-79
2022/01/08 09:47:01;;;;;;;9.00;2.33;;;2.20;99.90;;;;;;5099290;27;20731;-80
2022/01/08 09:49:51;;;;;;;13.52;2.92;;;2.00;99.90;;;;;;5117570;27;20172;-80
2022/01/08 09:52:38;;;;;;;7.25;3.47;;;1.80;99.90;;;;;;5118650;27;20050;-81
2022/01/08 09:55:29;;;;;;;3.88;2.35;;;1.70;99.90;;;;;;5095156;27;20050;-80
2022/01/08 09:58:18;;;;;;;8.82;2.78;;;1.50;99.90;;;;;;5109826;27;20047;-81
2022/01/08 10:01:24;;;;;;;6.03;2.75;;;1.40;99.90;;;;;;5108368;27;20121;-81
2022/01/08 10:04:24;;;;;;;9.25;2.92;;;1.20;99.90;;;;;;5115484;27;20484;-78
2022/01/08 10:07:16;;;;;;;4.32;2.72;;;1.20;99.90;;;;;;5099793;27;20055;-79
2022/01/08 10:10:03;;;;;;;3.77;2.40;;;1.20;99.90;;;;;;5122805;27;20468;-79
2022/01/08 10:12:55;;;;;;;9.35;2.92;;;1.20;99.90;;;;;;5113917;27;20062;-80
2022/01/08 10:18:52;;;;;;;5.75;2.45;;;1.30;99.90;;;;;;5124260;27;20040;-80
2022/01/08 10:21:43;;;;;;;7.30;3.13;;;1.30;99.90;;;;;;5097792;27;20491;-80
2022/01/08 10:24:31;;;;;;;9.73;3.17;;;1.40;99.90;;;;;;5108576;27;20428;-80
2022/01/08 10:27:18;;;;;;;6.55;3.13;;;1.40;99.90;;;;;;5109485;27;20095;-81
2022/01/08 10:30:06;;;;;;;7.22;2.88;;;1.50;99.90;;;;;;5117518;27;20043;-80
2022/01/08 10:33:03;;;;;;;6.80;2.67;;;1.40;99.90;;;;;;5097256;27;20039;-79
2022/01/08 10:35:52;;;;;;;8.50;2.65;;;1.30;99.90;;;;;;5119443;27;20464;-80
2022/01/08 10:38:40;;;;;;;6.53;2.65;;;1.20;99.90;;;;;;5111244;27;20047;-80
2022/01/08 10:41:31;;;;;;;5.15;2.80;;;1.20;99.90;;;;;;5129881;27;20054;-79
2022/01/08 10:44:29;;;;;;;5.45;2.50;;;1.20;99.90;;;;;;5114933;28;20065;-79
2022/01/08 10:47:20;;;;;;;7.82;3.38;;;1.20;99.90;;;;;;5123481;27;20047;-80
2022/01/08 10:50:08;;;;;;;5.70;2.55;;;1.20;99.90;;;;;;5115290;27;20050;-79
2022/01/08 10:52:57;;;;;;;8.98;2.70;;;1.30;99.90;;;;;;5104342;28;20061;-79
2022/01/08 10:55:45;;;;;;;11.07;3.30;;;1.50;99.90;;;;;;5115088;28;20050;-79
2022/01/08 10:58:44;;;;;;;8.48;2.78;;;1.80;99.90;;;;;;5116547;27;20408;-80
2022/01/08 11:01:46;;;;;;;5.40;2.50;;;1.70;99.90;;;;;;5115317;28;20039;-79
2022/01/08 11:04:48;;;;;;;5.68;2.40;;;1.70;99.90;;;;;;5126102;28;20135;-80
2022/01/08 11:07:37;;;;;;;8.35;2.80;;;1.70;99.90;;;;;;5119870;27;20069;-80
2022/01/08 11:10:25;;;;;;;6.93;2.72;;;2.00;99.90;;;;;;5108795;28;20522;-79
2022/01/08 11:13:15;;;;;;;8.00;2.55;;;2.60;99.90;;;;;;5117937;27;20059;-79
2022/01/08 11:16:02;;;;;;;7.80;2.00;;;2.90;99.90;;;;;;5099367;28;20039;-80
2022/01/08 11:18:53;;;;;;;5.57;2.47;;;2.90;99.90;;;;;;5120249;27;20035;-79
2022/01/08 11:21:40;;;;;;;7.88;2.40;;;3.00;99.90;;;;;;5117935;28;20042;-80
2022/01/08 11:24:31;;;;;;;5.05;2.30;;;3.10;99.90;;;;;;5107745;28;20175;-81
2022/01/08 11:27:25;;;;;;;5.15;2.15;;;2.60;99.90;;;;;;5109505;28;20055;-80
2022/01/08 11:30:24;;;;;;;10.90;2.47;;;2.10;99.90;;;;;;5116431;28;20040;-80
2022/01/08 11:33:27;;;;;;;11.65;2.58;;;2.00;99.90;;;;;;5142392;27;20072;-80
2022/01/08 11:36:15;;;;;;;6.88;2.20;;;2.00;99.90;;;;;;5096316;28;20058;-81
2022/01/08 11:39:03;;;;;;;12.15;2.78;;;2.10;99.90;;;;;;5123113;27;20056;-79
2022/01/08 11:41:52;;;;;;;9.77;2.88;;;2.00;99.90;;;;;;5116226;28;20381;-80
2022/01/08 11:44:42;;;;;;;3.92;2.10;;;1.80;99.90;;;;;;5120517;27;20085;-78
2022/01/08 11:47:30;;;;;;;4.75;2.42;;;1.80;99.90;;;;;;5089213;28;20039;-80
2022/01/08 11:50:24;;;;;;;4.47;2.30;;;1.90;99.90;;;;;;5134759;27;20042;-82
2022/01/08 11:53:22;;;;;;;6.90;2.55;;;2.00;99.90;;;;;;5099971;28;20039;-80
2022/01/08 11:56:31;;;;;;;8.45;2.60;;;1.80;99.90;;;;;;5113355;28;20043;-81
2022/01/08 11:59:21;;;;;;;6.72;2.88;;;1.70;99.90;;;;;;5110821;28;20440;-80
2022/01/08 12:02:13;;;;;;;10.38;3.05;;;2.00;99.90;;;;;;5112750;27;20043;-81
2022/01/08 12:05:00;;;;;;;9.82;2.58;;;2.20;99.90;;;;;;5114963;28;20067;-80
2022/01/08 12:07:50;;;;;;;5.32;2.65;;;2.20;99.90;;;;;;5111538;28;20469;-80
2022/01/08 12:10:56;;;;;;;7.18;2.40;;;2.20;99.90;;;;;;5119745;27;20042;-81
2022/01/08 12:13:47;;;;;;;5.80;2.35;;;2.10;99.90;;;;;;5101540;27;20098;-79
2022/01/08 12:16:36;;;;;;;3.30;2.25;;;2.20;99.90;;;;;;5111504;27;20065;-79
2022/01/08 12:19:36;;;;;;;5.00;2.83;;;2.40;99.90;;;;;;5107729;27;20058;-82
2022/01/08 12:22:23;;;;;;;4.25;2.42;;;2.90;99.90;;;;;;5109847;27;20051;-80
2022/01/08 12:25:40;;;;;;;6.20;2.40;;;3.30;99.90;;;;;;5117262;27;20062;-80
2022/01/08 12:28:53;;;;;;;11.32;2.40;;;3.60;99.90;;;;;;5128738;27;20112;-81
2022/01/08 12:31:49;;;;;;;;;;;3.20;99.90;;;;;;5117334;27;20104;-81
2022/01/08 12:34:45;;;;;;;4.85;2.08;;;3.40;99.90;;;;;;5117023;27;19959;-81
2022/01/08 12:37:41;;;;;;;3.60;1.70;;;3.90;99.90;;;;;;5092461;27;20078;-81
2022/01/08 12:40:40;;;;;;;3.63;1.50;;;5.00;99.90;;;;;;5112636;27;20108;-83
2022/01/08 12:43:33;;;;;;;3.13;1.92;;;5.90;99.90;;;;;;5117874;27;20047;-81
2022/01/08 12:46:24;;;;;;;5.50;1.80;;;6.40;99.90;;;;;;5111370;27;20372;-81
2022/01/08 12:49:14;;;;;;;2.28;1.48;;;6.80;99.90;;;;;;5129074;27;20137;-82
2022/01/08 12:52:13;;;;;;;3.60;1.75;;;6.70;99.50;;;;;;5116000;27;20127;-80
2022/01/08 12:55:11;;;;;;;5.47;2.22;;;6.40;99.40;;;;;;5123043;27;20059;-80
2022/01/08 12:57:59;;;;;;;4.53;2.08;;;6.30;99.90;;;;;;5127962;27;20062;-81
2022/01/08 13:00:59;;;;;;;5.75;2.05;;;5.20;99.90;;;;;;5126901;27;20054;-82
2022/01/08 13:03:55;;;;;;;3.58;2.00;;;4.00;99.90;;;;;;5112602;27;20054;-82
2022/01/08 13:06:44;;;;;;;4.00;2.55;;;3.70;99.90;;;;;;5110895;27;20032;-82
2022/01/08 13:14:04;;;;;;;4.10;2.83;;;3.10;99.90;;;;;;5067451;28;20036;-81
2022/01/08 13:16:57;;;;;;;8.57;3.40;;;3.10;99.90;;;;;;5005789;28;20069;-79
2022/01/08 13:19:44;;;;;;;;;;;3.00;99.90;;;;;;5006236;28;20057;-80
2022/01/08 13:22:32;;;;;;;5.05;2.95;;;3.10;99.90;;;;;;5112350;27;20296;-81
2022/01/08 13:25:20;;;;;;;3.65;2.40;;;3.00;99.90;;;;;;5096276;27;20267;-80
2022/01/08 13:28:07;;;;;;;2.75;2.42;;;2.90;99.90;;;;;;5135942;27;20446;-82
2022/01/08 13:31:00;;;;;;;17.98;3.47;;;2.70;99.90;;;;;;5126751;27;20436;-79
2022/01/08 13:33:55;;;;;;;3.88;2.40;;;2.60;99.90;;;;;;5126591;27;20035;-80
2022/01/08 13:37:04;;;;;;;5.35;2.50;;;2.50;99.90;;;;;;5110333;27;20050;-80
2022/01/08 13:39:55;;;;;;;6.63;3.00;;;2.50;99.90;;;;;;5127412;27;20043;-81
2022/01/08 13:42:44;;;;;;;6.97;2.60;;;2.50;99.90;;;;;;5119282;27;20043;-79
2022/01/08 13:45:31;;;;;;;5.25;2.78;;;2.40;99.90;;;;;;5117911;27;20062;-80
2022/01/08 13:48:19;;;;;;;2.30;2.10;;;2.40;99.90;;;;;;5103407;27;20205;-79
2022/01/08 13:51:07;;;;;;;4.47;2.60;;;2.30;99.90;;;;;;5115149;27;20043;-81
2022/01/08 13:54:07;;;;;;;3.60;2.97;;;2.30;99.90;;;;;;5135995;27;20054;-82
2022/01/08 13:57:19;;;;;;;4.80;2.70;;;2.10;99.90;;;;;;5114778;27;20085;-81
2022/01/08 14:00:15;;;;;;;4.80;2.67;;;2.20;99.90;;;;;;5107052;27;20035;-82
2022/01/08 14:03:26;;;;;;;5.03;3.05;;;2.10;99.90;;;;;;5133380;27;20161;-82
2022/01/08 14:06:25;;;;;;;3.65;2.47;;;2.10;99.90;;;;;;5113425;27;20058;-81
2022/01/08 14:09:18;;;;;;;4.57;2.42;;;2.10;99.90;;;;;;5085151;28;20081;-81
2022/01/08 14:12:13;;;;;;;2.92;2.35;;;2.10;99.90;;;;;;5107292;27;20092;-79
2022/01/08 14:15:05;;;;;;;5.40;2.40;;;2.10;99.90;;;;;;5136050;27;20148;-81
2022/01/08 14:17:53;;;;;;;5.70;2.93;;;2.20;99.90;;;;;;5129308;27;20039;-81
2022/01/08 14:20:43;;;;;;;6.40;2.75;;;2.30;99.90;;;;;;5109729;27;20285;-81
2022/01/08 14:23:32;;;;;;;3.35;2.40;;;2.40;99.90;;;;;;5110518;27;20431;-81
2022/01/08 14:26:22;;;;;;;3.20;2.35;;;2.40;99.90;;;;;;5116008;27;20171;-83
2022/01/08 14:29:12;;;;;;;4.07;2.42;;;2.50;99.90;;;;;;5137165;27;20054;-82
2022/01/08 14:32:05;;;;;;;3.72;2.08;;;2.40;99.90;;;;;;5107716;27;20118;-82
2022/01/08 14:35:00;;;;;;;3.78;1.98;;;2.40;99.90;;;;;;5112571;27;20130;-81
2022/01/08 14:38:02;;;;;;;6.20;2.50;;;2.30;99.90;;;;;;5113539;27;20098;-81
2022/01/08 14:40:51;;;;;;;6.43;2.80;;;2.30;99.90;;;;;;5114847;27;20051;-82
2022/01/08 14:43:45;;;;;;;4.50;2.15;;;2.30;99.90;;;;;;5124601;27;20576;-80
2022/01/08 14:46:35;;;;;;;2.28;1.90;;;2.30;99.90;;;;;;5115064;27;20062;-80
2022/01/08 14:49:26;;;;;;;4.20;2.00;;;2.30;99.90;;;;;;5100700;28;20058;-81
2022/01/08 14:52:20;;;;;;;4.22;1.90;;;2.20;99.90;;;;;;5118092;27;20562;-80
2022/01/08 14:55:09;;;;;;;4.13;2.22;;;2.10;99.90;;;;;;5096890;28;20044;-80
2022/01/08 14:57:57;;;;;;;4.13;1.70;;;2.00;99.90;;;;;;5126139;27;20143;-81
2022/01/08 15:00:45;;;;;;;3.00;2.00;;;1.90;99.90;;;;;;5115936;27;20369;-78
2022/01/08 15:03:32;;;;;;;3.92;2.00;;;1.90;99.90;;;;;;5111762;28;20063;-80
2022/01/08 15:06:20;;;;;;;2.90;1.85;;;1.90;99.90;;;;;;5104048;28;20356;-80
2022/01/08 15:09:07;;;;;;;3.22;1.90;;;1.90;99.90;;;;;;5131439;27;20043;-82
2022/01/08 15:11:55;;;;;;;5.00;1.90;;;1.80;99.90;;;;;;5110579;27;20092;-81
2022/01/08 15:14:42;;;;;;;4.35;1.67;;;1.70;99.90;;;;;;5129618;27;20055;-80
2022/01/08 15:17:31;;;;;;;1.67;1.40;;;1.80;99.90;;;;;;5095897;27;20066;-81
2022/01/08 15:20:39;;;;;;;2.42;1.88;;;1.80;99.90;;;;;;5134970;27;20420;-80
2022/01/08 15:23:28;;;;;;;5.32;1.95;;;1.70;99.90;;;;;;5127603;28;20059;-80
2022/01/08 15:26:18;;;;;;;3.42;1.90;;;1.70;99.90;;;;;;5106752;27;20069;-82
2022/01/08 15:29:08;;;;;;;8.65;4.00;;;1.60;99.90;;;;;;5120823;28;20177;-83
2022/01/08 15:31:57;;;;;;;4.07;2.30;;;1.60;99.90;;;;;;5104291;28;20051;-82
2022/01/08 15:34:44;;;;;;;3.58;2.45;;;1.50;99.90;;;;;;5110524;28;20239;-80
2022/01/08 15:37:34;;;;;;;2.42;1.67;;;1.50;99.90;;;;;;5092781;28;20353;-81
2022/01/08 15:40:21;;;;;;;2.55;1.70;;;1.40;99.90;;;;;;5124155;27;20092;-80
2022/01/08 15:43:08;;;;;;;1.90;1.63;;;1.50;99.90;;;;;;5121005;27;20073;-81
2022/01/08 15:45:55;;;;;;;5.35;2.03;;;1.40;99.90;;;;;;5113455;27;20420;-81
2022/01/08 15:48:43;;;;;;;2.70;1.70;;;1.40;99.90;;;;;;5100869;27;20108;-81
2022/01/08 15:51:31;;;;;;;3.13;2.00;;;1.30;99.90;;;;;;5101864;27;20143;-80